Nearby METAR Reports

 

KSNK - Snyder/Winston, Texas, USA
Distance from station: SSE 25mi, 41km
Updated: Sat, 25-Jun-2022 8:15pm CDT
Clear
Clear
 Wind from SE
Wind: SE 6 mph , 9 km/h
Temperature: 97°F , 36°C
Dew Point: 46°F , 8°C
Humidity: 18%
Barometer: 29.97 inHg , 1014.9 hPa
Clouds: Clear
Visibility: 10 miles , 16 km
2022/06/26 01:15 KSNK 260115Z AUTO 14005KT 10SM CLR 36/08 A2997 RMK AO2 T03610077
KSWW - Sweetwater, Texas, USA
Distance from station: SE 56mi, 90km
Updated: Sat, 25-Jun-2022 7:55pm CDT
Clear
Clear
 Wind from SE
Wind: SE 9 mph , 15 km/h
Temperature: 99°F , 37°C
Dew Point: 45°F , 7°C
Humidity: 16%
Barometer: 29.98 inHg , 1015.2 hPa
Clouds: Clear
Visibility: 10 miles , 16 km
2022/06/26 00:55 KSWW 260055Z AUTO 14008KT 10SM CLR 37/07 A2998 RMK AO2 T03710067
 
KLBB - Lubbock, Texas, USA
Distance from station: NW 59mi, 94km
Updated: Sat, 25-Jun-2022 7:53pm CDT
Mostly cloudy
Mostly cloudy
 Wind from SE
Wind: SE 9 mph , 15 km/h
Temperature: 95°F , 35°C
Dew Point: 45°F , 7°C
Humidity: 18%
Barometer: 30.02 inHg , 1016.6 hPa
Clouds: Mostly cloudy
Visibility: 10 miles , 16 km
Cloud details: Mostly cloudy 11000 ft
Mostly cloudy 13000 ft
Mostly cloudy 25000 ft
2022/06/26 00:53 KLBB 260053Z 13008KT 10SM BKN110 BKN130 BKN250 35/07 A3002 RMK AO2 SLP103 MDT CU W-N-E T03500072
KPVW - Plainview, Texas, USA
Distance from station: NNW 85mi, 137km
Updated: Sat, 25-Jun-2022 7:55pm CDT
Partly cloudy
Partly cloudy
 Wind from NE
Wind: NE 17 mph , 28 km/h, Gust: 30 mph , 48 km/h
Temperature: 88°F , 31°C
Dew Point: 55°F , 13°C
Humidity: 33%
Barometer: 30.06 inHg , 1017.9 hPa
Clouds: Partly cloudy
Visibility: 10 miles , 16 km
Cloud details: Partly cloudy 12000 ft
2022/06/26 00:55 KPVW 260055Z AUTO 04015G26KT 10SM SCT120 31/13 A3006 RMK AO2 LTG DSNT NE T03100127
 
KDYS - Dyess Afb/Abilen, Texas, USA
Distance from station: ESE 88mi, 141km
Updated: Sat, 25-Jun-2022 7:56pm CDT
Clear
Clear
 Wind from E
Wind: E 14 mph , 22 km/h
Temperature: 99°F , 37°C
Dew Point: 46°F , 8°C
Humidity: 17%
Barometer: 29.91 inHg , 1012.9 hPa
Clouds: Clear
Visibility: 10 miles , 16 km
2022/06/26 00:56 KDYS 260056Z 10012KT 10SM CLR 37/08 A2991 RMK AO2A SLP072 T03710080
KGNC - Seminole, Texas, USA
Distance from station: WSW 89mi, 144km
Updated: Sat, 25-Jun-2022 7:55pm CDT
Clear
Clear
 Wind from SE
Wind: SE 9 mph , 15 km/h
Temperature: 95°F , 35°C
Dew Point: 41°F , 5°C
Humidity: 15%
Barometer: 30.05 inHg , 1017.6 hPa
Clouds: Clear
Visibility: 10 miles , 16 km
2022/06/26 00:55 KGNC 260055Z AUTO 14008KT 10SM CLR 35/05 A3005 RMK AO2 T03490050
 
KE11 - Andrews, Texas, USA
Distance from station: WSW 93mi, 149km
Updated: Sat, 25-Jun-2022 7:55pm CDT
Clear
Clear
 Wind from SE
Wind: SE 12 mph , 19 km/h
Temperature: 95°F , 35°C
Dew Point: 37°F , 3°C
Humidity: 13%
Barometer: 30.01 inHg , 1016.3 hPa
Clouds: Clear
Visibility: 10 miles , 16 km
2022/06/26 00:55 KE11 260055Z AUTO 13010KT 10SM CLR 35/03 A3001 RMK AO2 T03480029
KABI - Abilene, Texas, USA
Distance from station: ESE 96mi, 154km
Updated: Sat, 25-Jun-2022 7:52pm CDT
Clear
Clear
 Wind from SE
Wind: SE 10 mph , 17 km/h, Gust: 21 mph , 33 km/h
Temperature: 99°F , 37°C
Dew Point: 50°F , 10°C
Humidity: 19%
Barometer: 29.93 inHg , 1013.5 hPa
Clouds: Clear
Visibility: 10 miles , 16 km
2022/06/26 00:52 KABI 260052Z 14009G18KT 10SM CLR 37/10 A2993 RMK AO2 SLP103 T03720100
 
KMAF - Midland, Texas, USA
Distance from station: SW 96mi, 154km
Updated: Sat, 25-Jun-2022 7:53pm CDT
Clear
Clear
 Wind from SSE
Wind: SSE 13 mph , 20 km/h
Temperature: 95°F , 35°C
Dew Point: 37°F , 3°C
Humidity: 13%
Barometer: 29.96 inHg , 1014.6 hPa
Clouds: Clear
Visibility: 10 miles , 16 km
2022/06/26 00:53 KMAF 260053Z 15011KT 10SM CLR 35/03 A2996 RMK AO2 SLP093 T03500028 $
KCDS - Childress, Texas, USA
Distance from station: NNE 110mi, 177km
Updated: Sat, 25-Jun-2022 7:53pm CDT
Clear
Clear
 Wind from SE
Wind: SE 15 mph , 24 km/h
Temperature: 99°F , 37°C
Dew Point: 48°F , 9°C
Humidity: 18%
Barometer: 29.92 inHg , 1013.2 hPa
Clouds: Clear
Visibility: 10 miles , 16 km
2022/06/26 00:53 KCDS 260053Z AUTO 14013KT 10SM CLR 37/09 A2992 RMK AO2 LTG DSNT NW SLP099 T03720094
 
KSJT - San Angelo, Texas, USA
Distance from station: SSE 121mi, 194km
Updated: Sat, 25-Jun-2022 7:51pm CDT
Clear
Clear
 Wind from E
Wind: E 8 mph , 13 km/h, Gust: 20 mph , 31 km/h
Temperature: 100°F , 38°C
Dew Point: 43°F , 6°C
Humidity: 14%
Barometer: 29.91 inHg , 1012.9 hPa
Clouds: Clear
Visibility: 10 miles , 16 km
2022/06/26 00:51 KSJT 260051Z 10007G17KT 10SM CLR 38/06 A2991 RMK AO2 SLP097 T03780061
KHOB - Hobbs/Lea Co., New Mexico, USA
Distance from station: WSW 122mi, 196km
Updated: Sat, 25-Jun-2022 8:15pm CDT
Clear
Clear
 Wind from ESE
Wind: ESE 12 mph , 19 km/h, Gust: 17 mph , 28 km/h
Temperature: 91°F , 33°C
Dew Point: 36°F , 2°C
Humidity: 14%
Barometer: 30.03 inHg , 1016.9 hPa
Clouds: Clear
Visibility: 10 miles , 16 km
2022/06/26 01:15 KHOB 260115Z AUTO 11010G15KT 10SM CLR 33/02 A3003 RMK A
 
KCOM - Coleman Muni, Texas, USA
Distance from station: SE 131mi, 212km
Updated: Sat, 25-Jun-2022 7:55pm CDT
Clear
Clear
 Wind from SE
Wind: SE 12 mph , 19 km/h
Temperature: 99°F , 37°C
Dew Point: 45°F , 7°C
Humidity: 16%
Barometer: 29.94 inHg , 1013.9 hPa
Clouds: Clear
Visibility: 10 miles , 16 km
2022/06/26 00:55 KCOM 260055Z AUTO 13010KT 10SM CLR 37/07 A2994 RMK AO2 T03710065
KBKD - Breckenridge, Texas, USA
Distance from station: E 134mi, 215km
Updated: Sat, 25-Jun-2022 2:55pm CDT
NOT Current
Clear
Clear
 Wind from WNW
Wind: WNW 5 mph , 7 km/h
Temperature: 102°F , 39°C
Dew Point: 57°F , 14°C
Humidity: 23%
Barometer: 29.94 inHg , 1013.9 hPa
Clouds: Clear
Visibility: 10 miles , 16 km
2022/06/25 19:55 KBKD 251955Z AUTO 29004KT 10SM CLR 39/14 A2994 RMK AO2 T03870144
 
KF05 - Vernon Wilbarger, Texas, USA
Distance from station: NE 137mi, 220km
Updated: Sat, 25-Jun-2022 7:55pm CDT
Clear
Clear
 Wind from SSE
Wind: SSE 9 mph , 15 km/h
Temperature: 102°F , 39°C
Dew Point: 54°F , 12°C
Humidity: 20%
Barometer: 29.90 inHg , 1012.5 hPa
Clouds: Clear
Visibility: 10 miles , 16 km
2022/06/26 00:55 KF05 260055Z AUTO 15008KT 10SM CLR 39/12 A2990 RMK AO2 LTG DSNT NW T03860122